Time;durP1;ratioP1;P1;durP2;ratioP2;P2;SDS_P1;SDS_P2;PMS_P1;PMS_P2;Temp;Humidity;BMP_temperature;BMP_pressure;BME280_temperature;BME280_humidity;BME280_pressure;Samples;Min_cycle;Max_cycle;Signal;HPM_P1;HPM_P2
2022/05/12 00:01:22;;;;;;;20.83;9.52;;;;;;;16.61;100.00;97628.84;4979980;28;20125;-56
2022/05/12 00:03:47;;;;;;;21.90;9.65;;;;;;;16.66;100.00;97640.75;4980514;28;20129;-56
2022/05/12 00:06:13;;;;;;;20.10;9.52;;;;;;;16.42;100.00;97632.81;4980258;28;20496;-57
2022/05/12 00:08:38;;;;;;;21.05;10.07;;;;;;;16.46;100.00;97626.38;4980077;28;20875;-55
2022/05/12 00:11:04;;;;;;;22.48;10.00;;;;;;;16.75;100.00;97629.53;4979688;28;20080;-55
2022/05/12 00:13:29;;;;;;;21.05;10.00;;;;;;;16.42;100.00;97616.16;4980051;28;20431;-54
2022/05/12 00:15:55;;;;;;;30.13;10.27;;;;;;;16.83;100.00;97628.19;4979756;28;20523;-55
2022/05/12 00:18:20;;;;;;;21.90;10.13;;;;;;;16.46;100.00;97623.72;4979930;28;20026;-55
2022/05/12 00:20:46;;;;;;;18.75;9.65;;;;;;;16.43;100.00;97623.09;4979562;28;20123;-54
2022/05/12 00:23:14;;;;;;;19.63;9.65;;;;;;;16.40;100.00;97618.06;4979375;28;20046;-55
2022/05/12 00:25:42;;;;;;;30.45;9.55;;;;;;;16.33;100.00;97618.50;4979987;28;20041;-55
2022/05/12 00:28:08;;;;;;;23.02;10.15;;;;;;;16.09;100.00;97620.22;4980071;28;20105;-54
2022/05/12 00:30:33;;;;;;;21.85;9.90;;;;;;;16.22;100.00;97618.41;4979336;28;20455;-55
2022/05/12 00:32:59;;;;;;;20.85;9.82;;;;;;;16.63;100.00;97611.97;4979541;28;20028;-54
2022/05/12 00:35:25;;;;;;;23.15;10.20;;;;;;;16.33;100.00;97607.97;4979236;28;20057;-55
2022/05/12 00:37:50;;;;;;;21.25;9.88;;;;;;;16.65;100.00;97606.63;4980096;28;20547;-57
2022/05/12 00:40:16;;;;;;;24.42;10.82;;;;;;;16.54;100.00;97615.28;4979250;28;20034;-54
2022/05/12 00:43:04;;;;;;;22.60;10.63;;;;;;;16.57;100.00;97610.63;4980111;28;20471;-54
2022/05/12 00:45:32;;;;;;;21.05;10.05;;;;;;;16.49;100.00;97601.63;4979263;28;20044;-55
2022/05/12 00:47:58;;;;;;;22.55;10.05;;;;;;;16.34;100.00;97604.41;4979467;28;20041;-54
2022/05/12 00:50:28;;;;;;;23.85;9.70;;;;;;;16.60;100.00;97606.97;4978969;28;20074;-54
2022/05/12 00:52:53;;;;;;;19.77;9.50;;;;;;;16.63;100.00;97617.25;4979324;28;20022;-54
2022/05/12 00:55:27;;;;;;;18.50;8.10;;;;;;;17.02;100.00;97628.53;4979069;28;20502;-55
2022/05/12 00:57:55;;;;;;;20.88;10.20;;;;;;;16.54;100.00;97633.72;4979311;28;20022;-53
2022/05/12 01:00:23;;;;;;;19.40;8.85;;;;;;;15.98;100.00;97660.41;4979121;28;20033;-53
2022/05/12 01:02:53;;;;;;;19.60;9.10;;;;;;;16.03;100.00;97657.44;4979439;28;20738;-53
2022/05/12 01:05:19;;;;;;;19.90;9.80;;;;;;;16.40;100.00;97660.19;4979053;28;20030;-54
2022/05/12 01:07:44;;;;;;;15.18;8.13;;;;;;;16.74;100.00;97651.59;4979235;28;20065;-54
2022/05/12 01:10:10;;;;;;;21.70;8.80;;;;;;;16.71;100.00;97658.84;4978621;28;20173;-54
2022/05/12 01:12:44;;;;;;;23.55;9.75;;;;;;;16.84;100.00;97658.84;4979172;28;20046;-54
2022/05/12 01:15:10;;;;;;;16.88;7.95;;;;;;;17.18;100.00;97662.50;4978958;28;20026;-54
2022/05/12 01:17:36;;;;;;;19.02;8.38;;;;;;;17.21;100.00;97651.72;4978936;28;20750;-54
2022/05/12 01:20:02;;;;;;;14.43;7.78;;;;;;;17.37;100.00;97650.59;4978826;28;20027;-53
2022/05/12 01:22:49;;;;;;;16.42;7.43;;;;;;;17.78;100.00;97651.94;4977894;28;20877;-55
2022/05/12 01:25:18;;;;;;;21.88;8.23;;;;;;;17.69;100.00;97662.22;4978615;28;20109;-54
2022/05/12 01:27:44;;;;;;;19.35;7.93;;;;;;;17.83;100.00;97648.00;4978705;28;20034;-54
2022/05/12 01:30:13;;;;;;;18.17;7.53;;;;;;;17.56;100.00;97658.00;4978664;28;20035;-55
2022/05/12 01:32:39;;;;;;;18.27;7.53;;;;;;;17.70;100.00;97656.00;4979191;28;20068;-55
2022/05/12 01:35:06;;;;;;;18.00;7.53;;;;;;;17.49;100.00;97661.06;4979352;28;20446;-54
2022/05/12 01:37:32;;;;;;;17.38;7.50;;;;;;;17.55;100.00;97665.03;4975127;28;20044;-54
2022/05/12 01:39:57;;;;;;;16.95;7.40;;;;;;;17.39;100.00;97665.34;4977729;28;20030;-54
2022/05/12 01:42:23;;;;;;;17.52;7.25;;;;;;;17.41;100.00;97666.09;4979063;28;20574;-55
2022/05/12 01:44:49;;;;;;;17.35;7.78;;;;;;;17.03;100.00;97672.34;4978774;28;20558;-55
2022/05/12 01:47:15;;;;;;;19.65;7.50;;;;;;;17.20;100.00;97670.28;4978253;28;20133;-53
2022/05/12 01:49:42;;;;;;;14.30;6.93;;;;;;;17.24;100.00;97666.47;4978781;28;20721;-56
2022/05/12 01:52:10;;;;;;;16.65;6.82;;;;;;;17.61;100.00;97674.28;4978836;28;20050;-53
2022/05/12 01:54:35;;;;;;;17.40;7.75;;;;;;;17.24;100.00;97682.28;4978937;28;20602;-55
2022/05/12 01:57:00;;;;;;;20.35;7.65;;;;;;;17.06;100.00;97685.31;4978213;28;20066;-54
2022/05/12 01:59:26;;;;;;;19.08;7.70;;;;;;;16.99;100.00;97681.44;4978919;28;20540;-53
2022/05/12 02:01:52;;;;;;;16.70;6.80;;;;;;;17.24;100.00;97687.56;4978643;28;20041;-54
2022/05/12 02:04:18;;;;;;;17.75;7.82;;;;;;;17.06;100.00;97687.97;4978666;28;20022;-55
2022/05/12 02:06:44;;;;;;;15.98;7.35;;;;;;;16.74;100.00;97695.50;4978705;28;20034;-55
2022/05/12 02:09:10;;;;;;;17.73;8.18;;;;;;;16.68;100.00;97696.78;4978606;28;20113;-53
2022/05/12 02:11:35;;;;;;;21.88;8.25;;;;;;;16.49;100.00;97701.66;4978404;28;20141;-54
2022/05/12 02:14:02;;;;;;;17.23;7.97;;;;;;;16.37;100.00;97698.91;4978755;28;20031;-54
2022/05/12 02:16:29;;;;;;;21.65;8.20;;;;;;;16.32;100.00;97703.69;4978252;28;20137;-54
2022/05/12 02:18:55;;;;;;;17.38;7.30;;;;;;;16.38;100.00;97710.31;4978300;28;20018;-53
2022/05/12 02:21:21;;;;;;;21.08;7.88;;;;;;;16.51;100.00;97712.94;4978049;28;20076;-53
2022/05/12 02:23:47;;;;;;;22.48;9.20;;;;;;;16.26;100.00;97717.25;4978498;28;20070;-55
2022/05/12 02:26:13;;;;;;;20.27;7.97;;;;;;;16.45;100.00;97721.22;4978207;28;20046;-54
2022/05/12 02:28:39;;;;;;;18.30;8.45;;;;;;;16.19;100.00;97726.50;4978511;28;20143;-54
2022/05/12 02:31:04;;;;;;;21.52;8.93;;;;;;;15.97;100.00;97727.97;4978401;28;20038;-54
2022/05/12 02:33:29;;;;;;;18.98;8.45;;;;;;;16.21;100.00;97729.88;4979116;28;20030;-54
2022/05/12 02:35:56;;;;;;;18.42;8.45;;;;;;;16.04;100.00;97728.38;4982062;28;20048;-54
2022/05/12 02:38:21;;;;;;;20.27;9.10;;;;;;;15.85;100.00;97728.78;4982419;28;20037;-54
2022/05/12 02:40:46;;;;;;;19.88;8.63;;;;;;;16.11;100.00;97734.91;4981915;28;20034;-54
2022/05/12 02:43:24;;;;;;;20.33;8.60;;;;;;;15.96;100.00;97731.53;4982651;28;20044;-54
2022/05/12 02:45:52;;;;;;;16.13;8.13;;;;;;;16.03;100.00;97739.00;4982316;28;20045;-54
2022/05/12 02:48:19;;;;;;;21.73;8.35;;;;;;;16.42;100.00;97732.81;4981330;28;20743;-54
2022/05/12 02:50:45;;;;;;;19.70;8.20;;;;;;;16.54;100.00;97736.38;4981179;28;20048;-54
2022/05/12 02:53:10;;;;;;;16.30;7.70;;;;;;;16.38;100.00;97741.88;4980841;28;20026;-53
2022/05/12 02:55:36;;;;;;;20.55;8.32;;;;;;;15.95;100.00;97743.03;4981169;28;20058;-54
2022/05/12 02:58:01;;;;;;;21.13;8.45;;;;;;;15.98;100.00;97745.41;4982020;28;20401;-54
2022/05/12 03:00:26;;;;;;;18.38;8.50;;;;;;;16.14;100.00;97747.03;4981400;28;20553;-53
2022/05/12 03:02:52;;;;;;;18.75;8.10;;;;;;;16.43;100.00;97752.94;4981190;28;20539;-55
2022/05/12 03:05:17;;;;;;;19.35;8.02;;;;;;;15.92;100.00;97755.53;4981101;28;20034;-54
2022/05/12 03:07:43;;;;;;;17.38;7.35;;;;;;;16.15;100.00;97756.59;4981708;28;20030;-54
2022/05/12 03:10:10;;;;;;;18.55;7.97;;;;;;;15.94;100.00;97754.47;4980957;28;20070;-54
2022/05/12 03:12:36;;;;;;;14.40;6.90;;;;;;;16.31;100.00;97757.25;4981558;28;20057;-54
2022/05/12 03:15:03;;;;;;;19.13;8.57;;;;;;;15.99;100.00;97760.28;4981131;28;20054;-54
2022/05/12 03:17:29;;;;;;;19.40;7.93;;;;;;;15.53;100.00;97760.66;4980877;28;20038;-53
2022/05/12 03:19:55;;;;;;;20.27;8.23;;;;;;;15.57;100.00;97763.91;4981166;28;20026;-55
2022/05/12 03:22:20;;;;;;;20.20;7.88;;;;;;;15.64;100.00;97773.09;4980976;28;20758;-54
2022/05/12 03:24:45;;;;;;;18.65;8.23;;;;;;;15.95;100.00;97771.94;4981379;28;20097;-53
2022/05/12 03:27:11;;;;;;;22.73;8.40;;;;;;;15.72;100.00;97780.47;4980354;28;20046;-55
2022/05/12 03:29:36;;;;;;;21.45;8.32;;;;;;;15.90;100.00;97779.28;4981356;28;20030;-54
2022/05/12 03:32:03;;;;;;;19.92;7.97;;;;;;;15.67;100.00;97777.31;4980602;28;20047;-54
2022/05/12 03:34:30;;;;;;;21.33;8.40;;;;;;;15.52;100.00;97782.59;4981119;28;20033;-53
2022/05/12 03:36:56;;;;;;;20.77;8.60;;;;;;;15.30;100.00;97784.94;4979300;28;20070;-54
2022/05/12 03:39:21;;;;;;;19.48;8.05;;;;;;;15.39;100.00;97786.97;4980866;28;20065;-53
2022/05/12 03:41:47;;;;;;;18.40;7.03;;;;;;;15.78;100.00;97791.44;4980611;28;20054;-54
2022/05/12 03:46:56;;;;;;;21.48;9.02;;;;;;;15.36;100.00;97795.03;4980365;28;20121;-55
2022/05/12 03:49:22;;;;;;;21.33;8.60;;;;;;;15.55;100.00;97790.31;4981075;28;20097;-53
2022/05/12 03:51:47;;;;;;;18.85;8.55;;;;;;;15.16;100.00;97791.91;4980611;28;20042;-54
2022/05/12 03:54:13;;;;;;;19.35;8.40;;;;;;;15.24;100.00;97807.19;4980626;28;20034;-53
2022/05/12 03:56:38;;;;;;;21.58;8.80;;;;;;;15.43;100.00;97799.81;4979918;28;20052;-54
2022/05/12 03:59:05;;;;;;;23.58;10.10;;;;;;;15.70;100.00;97808.66;4978832;28;20178;-54
2022/05/12 04:01:31;;;;;;;20.00;8.75;;;;;;;15.27;100.00;97814.84;4978254;28;20213;-54
2022/05/12 04:03:57;;;;;;;21.70;8.88;;;;;;;15.48;100.00;97804.78;4980583;28;20022;-55
2022/05/12 04:06:22;;;;;;;18.83;8.05;;;;;;;16.02;100.00;97813.63;4980009;28;20050;-54
2022/05/12 04:08:48;;;;;;;16.92;7.85;;;;;;;16.09;100.00;97821.00;4980731;28;20018;-53
2022/05/12 04:11:14;;;;;;;21.58;8.63;;;;;;;16.37;100.00;97821.78;4977311;28;20045;-54
2022/05/12 04:13:41;;;;;;;20.30;8.48;;;;;;;16.64;100.00;97820.88;4979145;28;20029;-54
2022/05/12 04:16:06;;;;;;;20.95;9.10;;;;;;;16.11;100.00;97834.91;4978715;28;20030;-54
2022/05/12 04:18:32;;;;;;;18.70;8.50;;;;;;;16.14;100.00;97834.69;4980465;28;20084;-54
2022/05/12 04:20:57;;;;;;;16.15;7.85;;;;;;;16.46;100.00;97841.38;4979800;28;20073;-54
2022/05/12 04:23:22;;;;;;;21.50;8.32;;;;;;;16.25;100.00;97847.16;4980579;28;20030;-55
2022/05/12 04:25:48;;;;;;;22.75;7.80;;;;;;;16.54;100.00;97849.59;4994444;28;20030;-56
2022/05/12 04:28:13;;;;;;;17.95;8.10;;;;;;;16.19;100.00;97858.06;4979129;28;20042;-55
2022/05/12 04:30:39;;;;;;;19.25;7.90;;;;;;;16.06;100.00;97858.03;4979503;28;20484;-54
2022/05/12 04:35:48;;;;;;;20.17;8.52;;;;;;;17.40;100.00;97872.66;4979272;28;20045;-56
2022/05/12 04:38:14;;;;;;;20.85;7.95;;;;;;;17.37;100.00;97872.91;4979970;28;20026;-56
2022/05/12 04:40:39;;;;;;;19.63;8.32;;;;;;;17.00;100.00;97870.22;4979207;28;20743;-56
2022/05/12 04:43:05;;;;;;;18.98;7.45;;;;;;;17.56;100.00;97875.06;4980039;28;20064;-56
2022/05/12 04:45:31;;;;;;;17.70;7.57;;;;;;;17.61;100.00;97890.53;4979565;28;20042;-55
2022/05/12 04:47:57;;;;;;;16.67;7.32;;;;;;;17.97;100.00;97875.69;4978681;28;20029;-56
2022/05/12 04:50:28;;;;;;;17.13;7.35;;;;;;;18.13;100.00;97881.53;4979120;28;20019;-55
2022/05/12 04:52:54;;;;;;;18.55;6.90;;;;;;;18.69;100.00;97881.72;4979821;28;20674;-55
2022/05/12 04:55:20;;;;;;;18.20;6.88;;;;;;;18.71;100.00;97891.31;4978938;28;20034;-56
2022/05/12 04:57:49;;;;;;;18.95;7.18;;;;;;;18.52;100.00;97892.69;4979332;28;20026;-57
2022/05/12 05:00:20;;;;;;;17.92;6.35;;;;;;;19.14;100.00;97896.00;4978511;28;20863;-55
2022/05/12 05:02:46;;;;;;;15.48;5.90;;;;;;;19.35;100.00;97901.38;4979633;28;20030;-56
2022/05/12 05:05:12;;;;;;;16.00;5.47;;;;;;;19.95;100.00;97910.72;4978583;28;20037;-54
2022/05/12 05:07:38;;;;;;;14.07;5.90;;;;;;;20.08;100.00;97910.56;4982242;28;20041;-54
2022/05/12 05:10:05;;;;;;;15.48;5.45;;;;;;;20.57;100.00;97906.53;4978263;28;20030;-53
2022/05/12 05:12:31;;;;;;;16.20;5.63;;;;;;;19.91;100.00;97924.34;4979411;28;20022;-54
2022/05/12 05:14:57;;;;;;;15.80;5.53;;;;;;;20.05;100.00;97924.06;4979242;28;20161;-53
2022/05/12 05:17:23;;;;;;;15.20;5.50;;;;;;;20.30;100.00;97920.25;4978313;28;20467;-53
2022/05/12 05:19:49;;;;;;;18.63;5.35;;;;;;;20.22;100.00;97930.66;4978751;28;20649;-53
2022/05/12 05:22:15;;;;;;;14.65;5.30;;;;;;;20.29;100.00;97923.88;4978202;28;20046;-53
2022/05/12 05:24:40;;;;;;;15.60;5.18;;;;;;;20.34;100.00;97936.72;4979291;28;20711;-54
2022/05/12 05:27:06;;;;;;;18.40;5.88;;;;;;;20.82;100.00;97938.94;4978434;28;20045;-53
2022/05/12 05:29:32;;;;;;;15.35;5.10;;;;;;;20.32;100.00;97944.81;4978674;28;20026;-55
2022/05/12 05:31:58;;;;;;;12.43;4.72;;;;;;;20.89;100.00;97948.06;4978364;28;20034;-54
2022/05/12 05:34:23;;;;;;;19.38;5.03;;;;;;;21.47;100.00;97957.38;4978754;28;20045;-55
2022/05/12 05:36:49;;;;;;;15.82;5.25;;;;;;;21.88;100.00;97971.50;4978189;28;20049;-55
2022/05/12 05:39:27;;;;;;;17.17;6.20;;;;;;;22.39;100.00;97975.84;4978551;28;20100;-54
2022/05/12 05:41:58;;;;;;;15.95;5.55;;;;;;;22.91;100.00;97971.06;4978077;28;20643;-55
2022/05/12 05:44:23;;;;;;;13.65;4.85;;;;;;;24.07;89.23;97972.72;4977217;28;20056;-55
2022/05/12 05:46:48;;;;;;;15.85;4.80;;;;;;;23.78;87.23;97979.00;4978247;28;20038;-55
2022/05/12 05:49:14;;;;;;;13.25;4.63;;;;;;;25.61;73.69;97973.41;4978777;28;20037;-55
2022/05/12 05:54:24;;;;;;;12.02;4.28;;;;;;;26.26;69.27;97981.69;4978667;28;20114;-57
2022/05/12 05:56:49;;;;;;;13.80;4.25;;;;;;;24.69;69.87;97984.41;4977972;28;20133;-55
2022/05/12 05:59:15;;;;;;;17.80;4.20;;;;;;;25.19;70.13;97988.31;4978549;28;20031;-56
2022/05/12 06:01:40;;;;;;;11.15;4.18;;;;;;;27.76;62.54;97987.75;4977340;28;20133;-55
2022/05/12 06:04:06;;;;;;;14.35;3.83;;;;;;;27.33;60.10;97999.72;4978540;28;20328;-55
2022/05/12 06:06:32;;;;;;;11.48;4.05;;;;;;;26.47;59.75;97996.47;4977927;28;20061;-54
2022/05/12 06:08:58;;;;;;;13.65;3.60;;;;;;;26.56;59.19;98006.19;4981974;28;20811;-55
2022/05/12 06:11:23;;;;;;;10.23;3.33;;;;;;;28.15;55.03;97995.00;4981831;28;20034;-55
2022/05/12 06:13:48;;;;;;;8.00;3.30;;;;;;;25.76;61.36;97999.34;4982194;28;20456;-55
2022/05/12 06:16:14;;;;;;;7.70;3.20;;;;;;;26.00;60.47;97999.66;4982028;28;20042;-54
2022/05/12 06:18:41;;;;;;;7.60;3.40;;;;;;;27.38;56.61;98008.09;4982653;28;20041;-54
2022/05/12 06:21:09;;;;;;;10.82;3.65;;;;;;;27.08;57.33;98008.59;4981371;28;20600;-54
2022/05/12 06:23:35;;;;;;;11.65;3.67;;;;;;;26.08;59.14;98007.69;4982646;28;20030;-54
2022/05/12 06:26:00;;;;;;;9.60;3.63;;;;;;;29.12;52.07;98021.38;4980765;28;20045;-55
2022/05/12 06:28:26;;;;;;;8.73;3.60;;;;;;;27.55;53.85;98022.28;4980291;28;20038;-55
2022/05/12 06:30:51;;;;;;;7.78;3.08;;;;;;;26.55;59.39;98025.91;4980089;28;20092;-55
2022/05/12 06:33:18;;;;;;;7.95;3.25;;;;;;;26.09;61.84;98025.44;4982215;28;20032;-55
2022/05/12 06:35:44;;;;;;;7.88;3.13;;;;;;;26.26;60.31;98037.00;4981541;28;20042;-56
2022/05/12 06:38:10;;;;;;;9.48;3.30;;;;;;;24.91;63.71;98035.63;4981814;28;20034;-54
2022/05/12 06:40:36;;;;;;;9.93;3.40;;;;;;;24.02;67.45;98040.63;4981323;28;20108;-56
2022/05/12 06:43:05;;;;;;;10.40;3.40;;;;;;;24.02;68.44;98039.75;4981949;28;20034;-56
2022/05/12 06:45:30;;;;;;;8.50;2.90;;;;;;;23.52;72.65;98053.38;4980762;28;20832;-56
2022/05/12 06:47:56;;;;;;;13.60;3.53;;;;;;;23.23;77.44;98057.75;4981899;28;20033;-56
2022/05/12 06:50:25;;;;;;;10.10;3.90;;;;;;;23.68;73.56;98051.78;4981118;28;20018;-56
2022/05/12 06:52:52;;;;;;;8.82;3.53;;;;;;;23.32;77.22;98055.22;4982277;28;20084;-56
2022/05/12 06:55:17;;;;;;;10.73;3.92;;;;;;;23.48;76.15;98058.13;4980896;28;20495;-55
2022/05/12 06:57:43;;;;;;;10.70;3.70;;;;;;;24.13;71.89;98057.38;4981898;28;20496;-55
2022/05/12 07:00:10;;;;;;;10.07;3.30;;;;;;;24.47;72.57;98065.63;4981107;28;20102;-56
2022/05/12 07:02:36;;;;;;;9.07;3.50;;;;;;;24.03;75.09;98068.94;4981091;28;20121;-56
2022/05/12 07:05:02;;;;;;;9.40;3.38;;;;;;;23.33;79.12;98072.88;4981652;28;20026;-56
2022/05/12 07:07:28;;;;;;;12.18;3.25;;;;;;;23.20;79.03;98065.19;4980691;28;20073;-55
2022/05/12 07:09:55;;;;;;;17.13;3.65;;;;;;;23.72;78.14;98067.47;4981202;28;20137;-54
2022/05/12 07:12:21;;;;;;;10.82;3.63;;;;;;;23.85;78.19;98078.66;4980413;28;20542;-54
2022/05/12 07:14:46;;;;;;;10.18;3.53;;;;;;;23.65;78.92;98070.72;4981439;28;20042;-56
2022/05/12 07:17:12;;;;;;;9.48;3.00;;;;;;;25.24;69.77;98068.78;4986118;28;20042;-56
2022/05/12 07:19:37;;;;;;;9.65;3.58;;;;;;;24.56;70.10;98063.94;4980637;28;20049;-54
2022/05/12 07:27:31;;;;;;;10.93;3.60;;;;;;;28.49;55.40;98074.28;4980137;28;20038;-56
2022/05/12 07:29:56;;;;;;;8.52;3.03;;;;;;;26.43;59.18;98076.19;4980962;28;20023;-56
2022/05/12 07:32:22;;;;;;;11.77;3.20;;;;;;;27.22;58.35;98082.06;4980312;28;20392;-57
2022/05/12 07:34:47;;;;;;;13.10;3.20;;;;;;;27.10;58.35;98075.34;4980472;28;20061;-55
2022/05/12 07:37:14;;;;;;;10.30;3.08;;;;;;;27.97;56.66;98077.50;4980398;28;20050;-57
2022/05/12 07:39:39;;;;;;;6.68;2.80;;;;;;;26.86;57.88;98081.50;4981216;28;20026;-54
2022/05/12 07:42:05;;;;;;;9.75;2.95;;;;;;;27.45;55.48;98082.25;4980523;28;20397;-55
2022/05/12 07:44:34;;;;;;;7.35;2.72;;;;;;;27.70;54.28;98087.59;4979766;28;20500;-55
2022/05/12 07:47:09;;;;;;;6.78;2.80;;;;;;;27.64;54.52;98097.16;4980007;28;20053;-56
2022/05/12 07:49:36;;;;;;;7.28;2.70;;;;;;;28.67;51.67;98094.69;4980415;28;20040;-56
2022/05/12 07:52:07;;;;;;;8.80;3.08;;;;;;;29.55;48.60;98096.09;4979774;28;20048;-56
2022/05/12 07:54:33;;;;;;;6.20;2.60;;;;;;;29.95;47.24;98096.75;4980980;28;20030;-55
2022/05/12 07:56:58;;;;;;;8.45;3.00;;;;;;;30.72;46.00;98099.03;4979674;28;20115;-54
2022/05/12 07:59:24;;;;;;;6.63;2.78;;;;;;;29.41;47.56;98106.63;4980630;28;20026;-55
2022/05/12 08:01:50;;;;;;;8.40;2.47;;;;;;;30.42;48.35;98103.66;4980309;28;20041;-55
2022/05/12 08:04:15;;;;;;;6.50;2.50;;;;;;;27.72;52.56;98108.84;4980238;28;20404;-55
2022/05/12 08:06:42;;;;;;;6.95;2.80;;;;;;;28.39;50.31;98101.31;4979265;28;20472;-55
2022/05/12 08:09:08;;;;;;;6.68;2.83;;;;;;;30.22;46.63;98113.25;4994759;28;20045;-56
2022/05/12 08:11:33;;;;;;;9.68;2.70;;;;;;;31.58;44.19;98113.59;4980113;28;20038;-55
2022/05/12 08:13:59;;;;;;;4.85;2.35;;;;;;;32.06;44.47;98114.63;4979871;28;20156;-56
2022/05/12 08:16:24;;;;;;;6.07;2.65;;;;;;;28.19;50.49;98119.66;4977871;28;20030;-55
2022/05/12 08:18:50;;;;;;;9.23;2.47;;;;;;;28.32;49.51;98120.97;4995337;28;20030;-56
2022/05/12 08:21:18;;;;;;;7.07;2.85;;;;;;;26.71;52.64;98119.59;4979229;28;20532;-56
2022/05/12 08:23:43;;;;;;;6.05;2.53;;;;;;;27.02;51.92;98123.50;4979686;28;20412;-55
2022/05/12 08:26:09;;;;;;;8.50;2.75;;;;;;;25.51;57.08;98121.25;4979946;28;20047;-56
2022/05/12 08:28:35;;;;;;;8.02;3.10;;;;;;;25.82;57.73;98114.59;4980069;28;20028;-54
2022/05/12 08:31:00;;;;;;;7.63;2.75;;;;;;;26.07;57.18;98120.97;4978249;28;20447;-56
2022/05/12 08:33:26;;;;;;;8.98;2.78;;;;;;;26.40;56.63;98131.84;4993694;28;20041;-56
2022/05/12 08:35:51;;;;;;;7.85;3.10;;;;;;;25.10;60.03;98123.50;4979249;28;20281;-57
2022/05/12 08:38:19;;;;;;;10.93;3.35;;;;;;;25.84;59.19;98125.97;4979260;28;20065;-57
2022/05/12 08:41:03;;;;;;;6.20;2.38;;;;;;;25.63;58.92;98137.00;4979733;28;20347;-54
2022/05/12 08:43:57;;;;;;;10.07;2.97;;;;;;;26.11;57.04;98133.84;4979324;28;20030;-56
2022/05/12 08:46:57;;;;;;;6.22;2.45;;;;;;;25.37;59.00;98132.47;4978635;28;20171;-56
2022/05/12 08:49:31;;;;;;;9.07;3.08;;;;;;;24.98;58.94;98133.56;4978771;28;20146;-56
2022/05/12 08:52:22;;;;;;;9.32;2.95;;;;;;;24.60;60.17;98145.31;4979368;28;20104;-56
2022/05/12 08:55:10;;;;;;;10.65;2.95;;;;;;;24.75;58.50;98142.97;4969006;28;20034;-54
2022/05/12 08:57:45;;;;;;;9.23;3.10;;;;;;;25.47;54.88;98138.53;4979094;28;20038;-56
2022/05/12 09:00:15;;;;;;;8.60;2.88;;;;;;;25.57;55.40;98143.81;4978821;28;20496;-55
2022/05/12 09:03:07;;;;;;;9.77;3.00;;;;;;;25.61;58.61;98149.69;4979011;28;20635;-55
2022/05/12 09:05:40;;;;;;;7.28;2.63;;;;;;;26.80;54.81;98147.22;4978928;28;20561;-57
2022/05/12 09:08:15;;;;;;;9.60;3.00;;;;;;;24.82;58.81;98150.22;4978906;28;20398;-56
2022/05/12 09:10:59;;;;;;;9.90;3.05;;;;;;;26.13;56.48;98155.06;4978833;28;20096;-56
2022/05/12 09:13:35;;;;;;;9.45;3.00;;;;;;;26.03;55.89;98154.38;4978971;28;20476;-56
2022/05/12 09:16:27;;;;;;;12.43;2.80;;;;;;;26.69;55.03;98156.38;4978914;28;20077;-55
2022/05/12 09:18:53;;;;;;;8.57;2.85;;;;;;;28.04;51.35;98161.59;4979211;28;20088;-56
2022/05/12 09:21:31;;;;;;;8.73;2.95;;;;;;;25.33;55.02;98150.63;4978500;28;20141;-56
2022/05/12 09:23:57;;;;;;;7.35;2.72;;;;;;;26.40;54.06;98158.56;4978498;28;20033;-55
2022/05/12 09:26:32;;;;;;;7.70;2.83;;;;;;;26.49;53.25;98160.28;4978837;28;20044;-54
2022/05/12 09:29:29;;;;;;;9.60;3.10;;;;;;;27.73;52.17;98161.44;4978724;28;20030;-55
2022/05/12 09:32:03;;;;;;;9.60;3.30;;;;;;;28.78;49.68;98153.34;4974227;28;20046;-54
2022/05/12 09:34:33;;;;;;;9.05;3.00;;;;;;;29.33;47.37;98159.59;4977548;28;20113;-54
2022/05/12 09:37:20;;;;;;;7.03;2.72;;;;;;;29.56;46.41;98151.53;4978699;28;20220;-54
2022/05/12 09:39:48;;;;;;;8.25;2.70;;;;;;;27.99;48.88;98155.91;4978787;28;20307;-55
2022/05/12 09:42:27;;;;;;;11.77;3.35;;;;;;;27.73;49.85;98158.75;4976446;28;20050;-55
2022/05/12 09:45:06;;;;;;;5.90;2.63;;;;;;;28.10;48.73;98160.06;4978929;28;20052;-55
2022/05/12 09:47:33;;;;;;;6.28;2.58;;;;;;;27.43;50.51;98156.56;4978327;28;20638;-54
2022/05/12 09:50:26;;;;;;;8.68;2.60;;;;;;;28.69;46.17;98157.91;4978443;28;20033;-54
2022/05/12 09:52:55;;;;;;;10.40;3.20;;;;;;;28.92;46.00;98160.66;4978042;28;20053;-55
2022/05/12 09:55:31;;;;;;;8.88;3.33;;;;;;;29.74;44.73;98152.06;4977316;28;20076;-55
2022/05/12 09:58:01;;;;;;;7.97;2.83;;;;;;;30.00;44.57;98142.75;4978584;28;20030;-54
2022/05/12 10:00:35;;;;;;;9.02;3.00;;;;;;;29.83;44.92;98151.97;4978112;28;20572;-55
2022/05/12 10:09:17;;;;;;;9.65;2.97;;;;;;;28.87;45.11;98146.91;4978766;28;20088;-54
2022/05/12 10:11:48;;;;;;;7.22;2.90;;;;;;;27.41;47.50;98155.91;4978134;28;20031;-54
2022/05/12 10:14:49;;;;;;;8.82;2.55;;;;;;;26.58;49.74;98153.97;4978348;28;20042;-56
2022/05/12 10:17:32;;;;;;;8.95;2.75;;;;;;;27.16;49.39;98151.50;4977967;28;20030;-54
2022/05/12 10:20:03;;;;;;;10.43;3.10;;;;;;;27.87;47.86;98145.50;4978834;28;20054;-55
2022/05/12 10:22:52;;;;;;;7.45;2.60;;;;;;;27.26;49.04;98146.88;4978133;28;20101;-55
2022/05/12 10:25:39;;;;;;;7.00;2.83;;;;;;;27.54;48.05;98142.03;4977867;28;20031;-55
2022/05/12 10:28:26;;;;;;;7.07;2.53;;;;;;;26.13;50.83;98139.88;4978317;28;20010;-55
2022/05/12 10:31:13;;;;;;;13.05;2.88;;;;;;;26.18;51.31;98135.91;4977646;28;20046;-54
2022/05/12 10:33:55;;;;;;;8.52;2.65;;;;;;;27.72;48.37;98144.53;4978339;28;20030;-54
2022/05/12 10:36:41;;;;;;;12.45;3.05;;;;;;;26.80;49.56;98141.88;4977898;28;20038;-56
2022/05/12 10:39:30;;;;;;;8.50;2.90;;;;;;;26.20;51.70;98150.78;4978419;28;20026;-55
2022/05/12 10:42:26;;;;;;;9.57;3.20;;;;;;;25.96;51.81;98144.28;4977567;28;20042;-55
2022/05/12 10:45:07;;;;;;;8.75;3.08;;;;;;;26.25;51.96;98153.00;4977969;28;20154;-56
2022/05/12 10:48:02;;;;;;;7.90;2.80;;;;;;;26.54;51.20;98142.75;4978046;28;20042;-54
2022/05/12 10:50:42;;;;;;;7.57;2.78;;;;;;;26.86;50.74;98151.09;4977608;28;20141;-55
2022/05/12 10:53:45;;;;;;;9.55;3.10;;;;;;;26.50;50.81;98143.22;4978436;28;20034;-54
2022/05/12 10:56:16;;;;;;;9.45;2.85;;;;;;;25.90;52.16;98146.72;4981086;28;20042;-55
2022/05/12 10:58:51;;;;;;;9.05;2.92;;;;;;;25.94;52.16;98140.94;4981509;28;20022;-55
2022/05/12 11:01:28;;;;;;;8.88;3.00;;;;;;;25.78;52.53;98138.94;4981248;28;20480;-55
2022/05/12 11:04:16;;;;;;;9.55;2.92;;;;;;;26.98;50.73;98136.38;4981864;28;20957;-55
2022/05/12 11:06:43;;;;;;;10.20;2.92;;;;;;;28.07;48.93;98139.81;4981031;28;20057;-55
2022/05/12 11:09:30;;;;;;;11.38;2.90;;;;;;;28.74;46.78;98141.28;4981188;28;20022;-55
2022/05/12 11:12:01;;;;;;;9.57;3.15;;;;;;;28.94;46.82;98142.50;4980733;28;20088;-54
2022/05/12 11:14:53;;;;;;;6.13;2.50;;;;;;;28.44;46.92;98130.31;4981795;28;20586;-54
2022/05/12 11:17:33;;;;;;;8.02;2.78;;;;;;;28.35;46.83;98132.19;4980891;28;20739;-55
2022/05/12 11:20:32;;;;;;;11.45;2.58;;;;;;;28.87;45.82;98125.44;4981602;28;20133;-56
2022/05/12 11:23:02;;;;;;;6.82;2.47;;;;;;;28.11;47.50;98124.22;4980764;28;20046;-55
2022/05/12 11:25:34;;;;;;;7.60;2.63;;;;;;;28.46;47.29;98123.75;4980320;28;20045;-55
2022/05/12 11:31:48;;;;;;;9.98;2.88;;;;;;;27.66;48.92;98131.78;4980829;28;20057;-55
2022/05/12 11:34:19;;;;;;;7.72;2.83;;;;;;;27.23;50.11;98120.38;4981246;28;20026;-54
2022/05/12 11:36:47;;;;;;;8.57;2.90;;;;;;;27.26;50.70;98120.09;4980077;28;20046;-56
2022/05/12 11:39:27;;;;;;;7.55;2.83;;;;;;;27.66;49.77;98111.22;4980672;28;20030;-55
2022/05/12 11:42:17;;;;;;;7.90;2.60;;;;;;;27.53;50.76;98120.75;4980182;28;20038;-57
2022/05/12 11:45:06;;;;;;;9.98;3.13;;;;;;;27.86;49.04;98114.38;4980852;28;20037;-55
2022/05/12 11:47:59;;;;;;;8.13;2.78;;;;;;;27.93;49.32;98117.22;4979441;28;20446;-54
2022/05/12 11:51:01;;;;;;;10.90;3.28;;;;;;;27.80;49.67;98104.31;4980126;28;20046;-56
2022/05/12 11:53:45;;;;;;;9.98;2.85;;;;;;;27.14;50.66;98105.31;4981254;28;20042;-57
2022/05/12 11:56:12;;;;;;;9.55;2.75;;;;;;;27.41;50.69;98101.50;4980596;28;20045;-54
2022/05/12 11:58:48;;;;;;;7.72;2.85;;;;;;;26.76;51.59;98110.25;4980646;28;20572;-54
2022/05/12 12:01:20;;;;;;;10.77;2.75;;;;;;;27.13;51.13;98109.84;4980078;28;20061;-56